sensor_id;sensor_type;location;lat;lon;timestamp;P1;durP1;ratioP1;P2;durP2;ratioP2
28007;SDS011;15333;50.010;20.020;2024-02-21T00:01:03;24.35;;;13.35;;
28007;SDS011;15333;50.010;20.020;2024-02-21T00:04:20;30.02;;;14.07;;
28007;SDS011;15333;50.010;20.020;2024-02-21T00:07:21;24.10;;;13.23;;
28007;SDS011;15333;50.010;20.020;2024-02-21T00:10:23;27.10;;;12.75;;
28007;SDS011;15333;50.010;20.020;2024-02-21T00:13:23;26.73;;;13.35;;
28007;SDS011;15333;50.010;20.020;2024-02-21T00:16:25;25.65;;;13.73;;
28007;SDS011;15333;50.010;20.020;2024-02-21T00:19:25;31.95;;;14.90;;
28007;SDS011;15333;50.010;20.020;2024-02-21T00:22:26;28.65;;;14.43;;
28007;SDS011;15333;50.010;20.020;2024-02-21T00:25:29;31.40;;;14.68;;
28007;SDS011;15333;50.010;20.020;2024-02-21T00:28:30;29.38;;;15.45;;
28007;SDS011;15333;50.010;20.020;2024-02-21T00:31:31;30.45;;;15.52;;
28007;SDS011;15333;50.010;20.020;2024-02-21T00:34:32;29.08;;;16.17;;
28007;SDS011;15333;50.010;20.020;2024-02-21T00:37:32;34.28;;;17.65;;
28007;SDS011;15333;50.010;20.020;2024-02-21T00:40:33;33.72;;;18.05;;
28007;SDS011;15333;50.010;20.020;2024-02-21T00:43:35;37.92;;;19.13;;
28007;SDS011;15333;50.010;20.020;2024-02-21T00:46:36;39.75;;;20.02;;
28007;SDS011;15333;50.010;20.020;2024-02-21T00:49:39;45.08;;;21.83;;
28007;SDS011;15333;50.010;20.020;2024-02-21T00:52:40;40.65;;;21.85;;
28007;SDS011;15333;50.010;20.020;2024-02-21T00:55:40;46.90;;;22.38;;
28007;SDS011;15333;50.010;20.020;2024-02-21T00:58:43;41.92;;;22.90;;
28007;SDS011;15333;50.010;20.020;2024-02-21T01:01:44;43.08;;;22.33;;
28007;SDS011;15333;50.010;20.020;2024-02-21T01:04:45;43.15;;;21.58;;
28007;SDS011;15333;50.010;20.020;2024-02-21T01:07:45;40.85;;;22.60;;
28007;SDS011;15333;50.010;20.020;2024-02-21T01:10:47;48.22;;;22.25;;
28007;SDS011;15333;50.010;20.020;2024-02-21T01:13:47;39.53;;;22.52;;
28007;SDS011;15333;50.010;20.020;2024-02-21T01:16:48;43.05;;;22.58;;
28007;SDS011;15333;50.010;20.020;2024-02-21T01:19:49;44.80;;;22.17;;
28007;SDS011;15333;50.010;20.020;2024-02-21T01:22:50;44.22;;;23.00;;
28007;SDS011;15333;50.010;20.020;2024-02-21T01:25:51;46.72;;;23.35;;
28007;SDS011;15333;50.010;20.020;2024-02-21T01:28:52;47.75;;;25.33;;
28007;SDS011;15333;50.010;20.020;2024-02-21T01:31:53;48.22;;;23.42;;
28007;SDS011;15333;50.010;20.020;2024-02-21T01:34:54;51.13;;;24.00;;
28007;SDS011;15333;50.010;20.020;2024-02-21T01:37:55;52.03;;;25.25;;
28007;SDS011;15333;50.010;20.020;2024-02-21T01:40:56;54.10;;;25.77;;
28007;SDS011;15333;50.010;20.020;2024-02-21T01:43:57;54.47;;;24.70;;
28007;SDS011;15333;50.010;20.020;2024-02-21T01:46:58;59.13;;;25.10;;
28007;SDS011;15333;50.010;20.020;2024-02-21T01:49:59;47.80;;;23.58;;
28007;SDS011;15333;50.010;20.020;2024-02-21T01:53:00;49.85;;;24.17;;
28007;SDS011;15333;50.010;20.020;2024-02-21T01:56:02;49.42;;;22.95;;
28007;SDS011;15333;50.010;20.020;2024-02-21T01:59:06;49.15;;;22.30;;
28007;SDS011;15333;50.010;20.020;2024-02-21T02:02:06;47.00;;;22.25;;
28007;SDS011;15333;50.010;20.020;2024-02-21T02:05:07;50.38;;;21.60;;
28007;SDS011;15333;50.010;20.020;2024-02-21T02:08:08;52.10;;;22.67;;
28007;SDS011;15333;50.010;20.020;2024-02-21T02:11:09;51.40;;;21.77;;
28007;SDS011;15333;50.010;20.020;2024-02-21T02:14:11;55.42;;;23.73;;
28007;SDS011;15333;50.010;20.020;2024-02-21T02:17:12;50.95;;;22.42;;
28007;SDS011;15333;50.010;20.020;2024-02-21T02:20:12;46.97;;;21.60;;
28007;SDS011;15333;50.010;20.020;2024-02-21T02:26:27;46.75;;;21.52;;
28007;SDS011;15333;50.010;20.020;2024-02-21T02:29:28;48.03;;;23.13;;
28007;SDS011;15333;50.010;20.020;2024-02-21T02:32:28;50.58;;;21.52;;
28007;SDS011;15333;50.010;20.020;2024-02-21T02:35:30;51.85;;;23.20;;
28007;SDS011;15333;50.010;20.020;2024-02-21T02:38:31;46.10;;;20.83;;
28007;SDS011;15333;50.010;20.020;2024-02-21T02:41:34;49.65;;;20.77;;
28007;SDS011;15333;50.010;20.020;2024-02-21T02:44:36;47.10;;;20.63;;
28007;SDS011;15333;50.010;20.020;2024-02-21T02:47:39;43.53;;;18.75;;
28007;SDS011;15333;50.010;20.020;2024-02-21T02:50:40;41.53;;;19.10;;
28007;SDS011;15333;50.010;20.020;2024-02-21T02:53:41;42.67;;;17.77;;
28007;SDS011;15333;50.010;20.020;2024-02-21T02:56:42;50.03;;;20.38;;
28007;SDS011;15333;50.010;20.020;2024-02-21T02:59:50;40.10;;;18.73;;
28007;SDS011;15333;50.010;20.020;2024-02-21T03:02:51;51.60;;;19.58;;
28007;SDS011;15333;50.010;20.020;2024-02-21T03:05:52;37.80;;;18.05;;
28007;SDS011;15333;50.010;20.020;2024-02-21T03:08:53;37.00;;;18.35;;
28007;SDS011;15333;50.010;20.020;2024-02-21T03:11:55;41.58;;;18.05;;
28007;SDS011;15333;50.010;20.020;2024-02-21T03:15:03;38.35;;;16.85;;
28007;SDS011;15333;50.010;20.020;2024-02-21T03:18:05;37.58;;;17.35;;
28007;SDS011;15333;50.010;20.020;2024-02-21T03:21:06;34.33;;;16.35;;
28007;SDS011;15333;50.010;20.020;2024-02-21T03:24:07;36.50;;;16.85;;
28007;SDS011;15333;50.010;20.020;2024-02-21T03:27:08;41.83;;;17.00;;
28007;SDS011;15333;50.010;20.020;2024-02-21T03:30:09;40.03;;;16.60;;
28007;SDS011;15333;50.010;20.020;2024-02-21T03:33:10;45.80;;;18.25;;
28007;SDS011;15333;50.010;20.020;2024-02-21T03:36:14;38.30;;;17.27;;
28007;SDS011;15333;50.010;20.020;2024-02-21T03:39:15;40.92;;;17.17;;
28007;SDS011;15333;50.010;20.020;2024-02-21T03:42:16;38.92;;;17.55;;
28007;SDS011;15333;50.010;20.020;2024-02-21T03:45:18;35.70;;;16.75;;
28007;SDS011;15333;50.010;20.020;2024-02-21T03:48:18;45.47;;;16.20;;
28007;SDS011;15333;50.010;20.020;2024-02-21T03:51:19;34.30;;;14.75;;
28007;SDS011;15333;50.010;20.020;2024-02-21T03:54:20;35.20;;;14.95;;
28007;SDS011;15333;50.010;20.020;2024-02-21T03:57:21;40.33;;;14.65;;
28007;SDS011;15333;50.010;20.020;2024-02-21T04:00:22;35.72;;;14.65;;
28007;SDS011;15333;50.010;20.020;2024-02-21T04:03:23;42.25;;;15.27;;
28007;SDS011;15333;50.010;20.020;2024-02-21T04:06:25;36.17;;;14.63;;
28007;SDS011;15333;50.010;20.020;2024-02-21T04:09:26;41.97;;;14.88;;
28007;SDS011;15333;50.010;20.020;2024-02-21T04:12:27;35.00;;;13.68;;
28007;SDS011;15333;50.010;20.020;2024-02-21T04:15:28;42.03;;;13.30;;
28007;SDS011;15333;50.010;20.020;2024-02-21T04:18:29;31.50;;;12.10;;
28007;SDS011;15333;50.010;20.020;2024-02-21T04:21:30;38.45;;;13.82;;
28007;SDS011;15333;50.010;20.020;2024-02-21T04:24:31;37.50;;;14.52;;
28007;SDS011;15333;50.010;20.020;2024-02-21T04:27:32;34.65;;;14.18;;
28007;SDS011;15333;50.010;20.020;2024-02-21T04:30:33;40.05;;;15.57;;
28007;SDS011;15333;50.010;20.020;2024-02-21T04:33:33;38.33;;;14.15;;
28007;SDS011;15333;50.010;20.020;2024-02-21T04:36:34;36.42;;;13.35;;
28007;SDS011;15333;50.010;20.020;2024-02-21T04:39:35;33.30;;;12.45;;
28007;SDS011;15333;50.010;20.020;2024-02-21T04:42:36;31.52;;;12.48;;
28007;SDS011;15333;50.010;20.020;2024-02-21T04:45:37;35.28;;;11.88;;
28007;SDS011;15333;50.010;20.020;2024-02-21T04:48:38;30.52;;;10.52;;
28007;SDS011;15333;50.010;20.020;2024-02-21T04:51:39;36.40;;;11.70;;
28007;SDS011;15333;50.010;20.020;2024-02-21T04:54:41;33.00;;;11.38;;
28007;SDS011;15333;50.010;20.020;2024-02-21T04:57:42;33.78;;;12.10;;
28007;SDS011;15333;50.010;20.020;2024-02-21T05:00:43;26.70;;;10.98;;
28007;SDS011;15333;50.010;20.020;2024-02-21T05:03:43;30.30;;;11.48;;
28007;SDS011;15333;50.010;20.020;2024-02-21T05:06:45;35.85;;;12.07;;
28007;SDS011;15333;50.010;20.020;2024-02-21T05:09:46;35.45;;;11.35;;
28007;SDS011;15333;50.010;20.020;2024-02-21T05:12:47;33.03;;;9.43;;
28007;SDS011;15333;50.010;20.020;2024-02-21T05:15:48;30.20;;;10.32;;
28007;SDS011;15333;50.010;20.020;2024-02-21T05:18:49;27.45;;;10.52;;
28007;SDS011;15333;50.010;20.020;2024-02-21T05:21:50;30.50;;;10.35;;
28007;SDS011;15333;50.010;20.020;2024-02-21T05:24:51;27.95;;;10.75;;
28007;SDS011;15333;50.010;20.020;2024-02-21T05:27:51;26.58;;;9.95;;
28007;SDS011;15333;50.010;20.020;2024-02-21T05:30:56;29.42;;;10.18;;
28007;SDS011;15333;50.010;20.020;2024-02-21T05:33:57;26.40;;;10.25;;
28007;SDS011;15333;50.010;20.020;2024-02-21T05:36:58;27.17;;;8.95;;
28007;SDS011;15333;50.010;20.020;2024-02-21T05:40:00;32.78;;;10.07;;
28007;SDS011;15333;50.010;20.020;2024-02-21T05:43:01;33.33;;;11.07;;
28007;SDS011;15333;50.010;20.020;2024-02-21T05:46:02;29.42;;;9.95;;
28007;SDS011;15333;50.010;20.020;2024-02-21T05:49:03;34.47;;;11.25;;
28007;SDS011;15333;50.010;20.020;2024-02-21T05:52:04;30.90;;;10.77;;
28007;SDS011;15333;50.010;20.020;2024-02-21T05:55:06;24.85;;;10.07;;
28007;SDS011;15333;50.010;20.020;2024-02-21T05:58:09;31.38;;;11.32;;
28007;SDS011;15333;50.010;20.020;2024-02-21T06:01:13;25.60;;;9.68;;
28007;SDS011;15333;50.010;20.020;2024-02-21T06:04:14;22.00;;;8.30;;
28007;SDS011;15333;50.010;20.020;2024-02-21T06:07:15;24.50;;;8.15;;
28007;SDS011;15333;50.010;20.020;2024-02-21T06:10:16;27.10;;;8.30;;
28007;SDS011;15333;50.010;20.020;2024-02-21T06:13:17;27.45;;;8.77;;
28007;SDS011;15333;50.010;20.020;2024-02-21T06:16:18;19.50;;;8.35;;
28007;SDS011;15333;50.010;20.020;2024-02-21T06:19:19;17.05;;;7.70;;
28007;SDS011;15333;50.010;20.020;2024-02-21T06:22:20;22.67;;;7.85;;
28007;SDS011;15333;50.010;20.020;2024-02-21T06:25:20;25.25;;;8.27;;
28007;SDS011;15333;50.010;20.020;2024-02-21T06:28:21;20.75;;;8.00;;
28007;SDS011;15333;50.010;20.020;2024-02-21T06:31:22;18.05;;;8.40;;
28007;SDS011;15333;50.010;20.020;2024-02-21T06:34:23;17.85;;;7.72;;
28007;SDS011;15333;50.010;20.020;2024-02-21T06:37:24;19.77;;;8.32;;
28007;SDS011;15333;50.010;20.020;2024-02-21T06:40:25;25.20;;;8.48;;
28007;SDS011;15333;50.010;20.020;2024-02-21T06:43:26;18.42;;;8.52;;
28007;SDS011;15333;50.010;20.020;2024-02-21T06:46:27;18.80;;;8.65;;
28007;SDS011;15333;50.010;20.020;2024-02-21T06:49:34;18.45;;;8.02;;
28007;SDS011;15333;50.010;20.020;2024-02-21T06:52:35;21.00;;;8.90;;
28007;SDS011;15333;50.010;20.020;2024-02-21T06:55:37;23.15;;;7.85;;
28007;SDS011;15333;50.010;20.020;2024-02-21T06:58:37;23.50;;;7.90;;
28007;SDS011;15333;50.010;20.020;2024-02-21T07:01:38;15.35;;;7.25;;
28007;SDS011;15333;50.010;20.020;2024-02-21T07:04:39;17.48;;;7.30;;
28007;SDS011;15333;50.010;20.020;2024-02-21T07:07:40;18.00;;;6.72;;
28007;SDS011;15333;50.010;20.020;2024-02-21T07:10:41;18.38;;;7.50;;
28007;SDS011;15333;50.010;20.020;2024-02-21T07:13:42;18.60;;;7.13;;
28007;SDS011;15333;50.010;20.020;2024-02-21T07:16:43;16.75;;;7.00;;
28007;SDS011;15333;50.010;20.020;2024-02-21T07:19:44;16.85;;;7.20;;
28007;SDS011;15333;50.010;20.020;2024-02-21T07:22:45;16.00;;;6.47;;
28007;SDS011;15333;50.010;20.020;2024-02-21T07:25:47;15.60;;;7.22;;
28007;SDS011;15333;50.010;20.020;2024-02-21T07:28:47;16.73;;;6.50;;
28007;SDS011;15333;50.010;20.020;2024-02-21T07:31:48;18.95;;;7.45;;
28007;SDS011;15333;50.010;20.020;2024-02-21T07:34:49;18.88;;;7.53;;
28007;SDS011;15333;50.010;20.020;2024-02-21T07:37:50;20.50;;;7.28;;
28007;SDS011;15333;50.010;20.020;2024-02-21T07:40:51;17.20;;;6.68;;
28007;SDS011;15333;50.010;20.020;2024-02-21T07:43:52;13.63;;;7.05;;
28007;SDS011;15333;50.010;20.020;2024-02-21T07:46:53;18.48;;;6.65;;
28007;SDS011;15333;50.010;20.020;2024-02-21T07:49:55;14.68;;;5.57;;
28007;SDS011;15333;50.010;20.020;2024-02-21T07:52:56;17.15;;;6.10;;
28007;SDS011;15333;50.010;20.020;2024-02-21T07:55:57;12.45;;;5.82;;
28007;SDS011;15333;50.010;20.020;2024-02-21T07:58:58;14.70;;;6.68;;
28007;SDS011;15333;50.010;20.020;2024-02-21T08:01:59;13.63;;;5.50;;
28007;SDS011;15333;50.010;20.020;2024-02-21T08:05:00;14.60;;;5.05;;
28007;SDS011;15333;50.010;20.020;2024-02-21T08:08:01;17.30;;;6.47;;
28007;SDS011;15333;50.010;20.020;2024-02-21T08:11:03;13.65;;;4.95;;
28007;SDS011;15333;50.010;20.020;2024-02-21T08:14:04;15.82;;;5.20;;
28007;SDS011;15333;50.010;20.020;2024-02-21T08:17:05;14.32;;;5.03;;
28007;SDS011;15333;50.010;20.020;2024-02-21T08:20:06;12.02;;;4.50;;
28007;SDS011;15333;50.010;20.020;2024-02-21T08:23:07;13.70;;;5.07;;
28007;SDS011;15333;50.010;20.020;2024-02-21T08:26:08;8.07;;;3.85;;
28007;SDS011;15333;50.010;20.020;2024-02-21T08:29:09;6.88;;;3.63;;
28007;SDS011;15333;50.010;20.020;2024-02-21T08:32:10;13.88;;;4.93;;
28007;SDS011;15333;50.010;20.020;2024-02-21T08:35:11;8.45;;;4.50;;
28007;SDS011;15333;50.010;20.020;2024-02-21T08:38:13;13.15;;;4.45;;
28007;SDS011;15333;50.010;20.020;2024-02-21T08:41:14;11.18;;;4.40;;
28007;SDS011;15333;50.010;20.020;2024-02-21T08:44:15;13.60;;;4.50;;
28007;SDS011;15333;50.010;20.020;2024-02-21T08:47:15;13.50;;;4.85;;
28007;SDS011;15333;50.010;20.020;2024-02-21T08:50:17;12.52;;;4.55;;
28007;SDS011;15333;50.010;20.020;2024-02-21T08:53:17;13.82;;;4.68;;
28007;SDS011;15333;50.010;20.020;2024-02-21T08:56:18;9.10;;;5.07;;
28007;SDS011;15333;50.010;20.020;2024-02-21T08:59:19;12.43;;;5.00;;
28007;SDS011;15333;50.010;20.020;2024-02-21T09:02:21;17.70;;;5.45;;
28007;SDS011;15333;50.010;20.020;2024-02-21T09:05:22;12.45;;;5.03;;
28007;SDS011;15333;50.010;20.020;2024-02-21T09:08:23;15.35;;;6.00;;
28007;SDS011;15333;50.010;20.020;2024-02-21T09:11:24;15.73;;;6.00;;
28007;SDS011;15333;50.010;20.020;2024-02-21T09:14:27;14.55;;;5.68;;
28007;SDS011;15333;50.010;20.020;2024-02-21T09:17:29;19.88;;;5.35;;
28007;SDS011;15333;50.010;20.020;2024-02-21T09:20:30;15.52;;;5.10;;
28007;SDS011;15333;50.010;20.020;2024-02-21T09:23:31;12.95;;;4.80;;
28007;SDS011;15333;50.010;20.020;2024-02-21T09:26:33;14.63;;;5.35;;
28007;SDS011;15333;50.010;20.020;2024-02-21T09:29:34;16.45;;;4.95;;
28007;SDS011;15333;50.010;20.020;2024-02-21T09:32:35;10.35;;;4.43;;
28007;SDS011;15333;50.010;20.020;2024-02-21T09:35:36;12.88;;;4.55;;
28007;SDS011;15333;50.010;20.020;2024-02-21T09:38:39;12.20;;;4.88;;
28007;SDS011;15333;50.010;20.020;2024-02-21T09:41:42;8.98;;;4.45;;
28007;SDS011;15333;50.010;20.020;2024-02-21T09:44:53;10.30;;;4.28;;
28007;SDS011;15333;50.010;20.020;2024-02-21T09:51:04;14.13;;;3.72;;
28007;SDS011;15333;50.010;20.020;2024-02-21T09:54:07;11.43;;;3.85;;
28007;SDS011;15333;50.010;20.020;2024-02-21T09:57:08;10.23;;;4.00;;
28007;SDS011;15333;50.010;20.020;2024-02-21T10:00:09;8.98;;;3.88;;
28007;SDS011;15333;50.010;20.020;2024-02-21T10:03:15;7.60;;;3.67;;
28007;SDS011;15333;50.010;20.020;2024-02-21T10:06:16;11.88;;;3.90;;
28007;SDS011;15333;50.010;20.020;2024-02-21T10:09:23;14.27;;;4.35;;
28007;SDS011;15333;50.010;20.020;2024-02-21T10:15:28;10.85;;;4.47;;
28007;SDS011;15333;50.010;20.020;2024-02-21T10:18:29;10.27;;;4.20;;
28007;SDS011;15333;50.010;20.020;2024-02-21T10:21:30;9.45;;;4.32;;
28007;SDS011;15333;50.010;20.020;2024-02-21T10:24:31;11.63;;;4.00;;
28007;SDS011;15333;50.010;20.020;2024-02-21T10:27:36;7.78;;;3.55;;
28007;SDS011;15333;50.010;20.020;2024-02-21T10:30:37;14.38;;;4.03;;
28007;SDS011;15333;50.010;20.020;2024-02-21T10:33:38;7.93;;;4.30;;
28007;SDS011;15333;50.010;20.020;2024-02-21T10:36:39;9.88;;;4.20;;
28007;SDS011;15333;50.010;20.020;2024-02-21T10:39:41;10.43;;;4.30;;
28007;SDS011;15333;50.010;20.020;2024-02-21T10:42:42;12.40;;;4.20;;
28007;SDS011;15333;50.010;20.020;2024-02-21T10:45:44;10.68;;;4.10;;
28007;SDS011;15333;50.010;20.020;2024-02-21T10:48:46;7.85;;;3.95;;
28007;SDS011;15333;50.010;20.020;2024-02-21T10:51:48;11.50;;;4.03;;
28007;SDS011;15333;50.010;20.020;2024-02-21T10:54:53;11.52;;;4.45;;
28007;SDS011;15333;50.010;20.020;2024-02-21T10:57:59;9.20;;;3.65;;
28007;SDS011;15333;50.010;20.020;2024-02-21T11:01:00;9.13;;;4.10;;
28007;SDS011;15333;50.010;20.020;2024-02-21T11:04:05;8.45;;;3.40;;
28007;SDS011;15333;50.010;20.020;2024-02-21T11:07:07;10.20;;;3.95;;
28007;SDS011;15333;50.010;20.020;2024-02-21T11:10:30;11.52;;;5.07;;
28007;SDS011;15333;50.010;20.020;2024-02-21T11:13:40;8.27;;;4.07;;
28007;SDS011;15333;50.010;20.020;2024-02-21T11:16:41;9.73;;;3.72;;
28007;SDS011;15333;50.010;20.020;2024-02-21T11:19:43;9.90;;;4.05;;
28007;SDS011;15333;50.010;20.020;2024-02-21T11:22:44;7.65;;;3.60;;
28007;SDS011;15333;50.010;20.020;2024-02-21T11:25:45;10.73;;;4.07;;
28007;SDS011;15333;50.010;20.020;2024-02-21T11:28:55;8.45;;;4.10;;
28007;SDS011;15333;50.010;20.020;2024-02-21T11:32:00;9.10;;;4.70;;
28007;SDS011;15333;50.010;20.020;2024-02-21T11:35:03;10.07;;;4.60;;
28007;SDS011;15333;50.010;20.020;2024-02-21T11:38:08;13.57;;;4.97;;
28007;SDS011;15333;50.010;20.020;2024-02-21T11:41:10;8.80;;;4.10;;
28007;SDS011;15333;50.010;20.020;2024-02-21T11:44:11;8.73;;;4.28;;
28007;SDS011;15333;50.010;20.020;2024-02-21T11:47:13;11.40;;;4.65;;
28007;SDS011;15333;50.010;20.020;2024-02-21T11:50:15;8.52;;;4.57;;
28007;SDS011;15333;50.010;20.020;2024-02-21T11:53:16;13.48;;;4.57;;
28007;SDS011;15333;50.010;20.020;2024-02-21T11:56:17;11.38;;;5.03;;
28007;SDS011;15333;50.010;20.020;2024-02-21T11:59:18;9.85;;;4.53;;
28007;SDS011;15333;50.010;20.020;2024-02-21T12:02:19;9.52;;;4.78;;
28007;SDS011;15333;50.010;20.020;2024-02-21T12:05:20;11.25;;;4.90;;
28007;SDS011;15333;50.010;20.020;2024-02-21T12:08:21;12.95;;;4.88;;
28007;SDS011;15333;50.010;20.020;2024-02-21T12:11:22;11.57;;;4.90;;
28007;SDS011;15333;50.010;20.020;2024-02-21T12:14:24;7.57;;;5.10;;
28007;SDS011;15333;50.010;20.020;2024-02-21T12:17:26;9.65;;;5.40;;
28007;SDS011;15333;50.010;20.020;2024-02-21T12:20:27;13.10;;;5.18;;
28007;SDS011;15333;50.010;20.020;2024-02-21T12:23:28;15.30;;;5.68;;
28007;SDS011;15333;50.010;20.020;2024-02-21T12:26:29;12.27;;;5.78;;
28007;SDS011;15333;50.010;20.020;2024-02-21T12:29:30;13.70;;;6.03;;
28007;SDS011;15333;50.010;20.020;2024-02-21T12:32:31;10.80;;;5.70;;
28007;SDS011;15333;50.010;20.020;2024-02-21T12:35:32;14.65;;;6.72;;
28007;SDS011;15333;50.010;20.020;2024-02-21T12:38:33;15.88;;;6.05;;
28007;SDS011;15333;50.010;20.020;2024-02-21T12:41:35;15.48;;;6.20;;
28007;SDS011;15333;50.010;20.020;2024-02-21T12:44:38;13.25;;;6.07;;
28007;SDS011;15333;50.010;20.020;2024-02-21T12:47:39;11.65;;;6.10;;
28007;SDS011;15333;50.010;20.020;2024-02-21T12:50:49;13.45;;;5.85;;
28007;SDS011;15333;50.010;20.020;2024-02-21T12:53:54;16.52;;;6.10;;
28007;SDS011;15333;50.010;20.020;2024-02-21T12:56:55;14.07;;;6.50;;
28007;SDS011;15333;50.010;20.020;2024-02-21T12:59:56;16.40;;;6.63;;
28007;SDS011;15333;50.010;20.020;2024-02-21T13:02:57;15.57;;;6.20;;
28007;SDS011;15333;50.010;20.020;2024-02-21T13:05:58;8.05;;;4.75;;
28007;SDS011;15333;50.010;20.020;2024-02-21T13:08:59;12.85;;;4.70;;
28007;SDS011;15333;50.010;20.020;2024-02-21T13:12:04;10.82;;;4.50;;
28007;SDS011;15333;50.010;20.020;2024-02-21T13:15:05;11.50;;;4.97;;
28007;SDS011;15333;50.010;20.020;2024-02-21T13:18:07;11.40;;;5.45;;
28007;SDS011;15333;50.010;20.020;2024-02-21T13:21:08;12.75;;;5.97;;
28007;SDS011;15333;50.010;20.020;2024-02-21T13:24:09;9.73;;;5.25;;
28007;SDS011;15333;50.010;20.020;2024-02-21T13:27:10;11.32;;;4.95;;
28007;SDS011;15333;50.010;20.020;2024-02-21T13:30:11;14.88;;;5.40;;
28007;SDS011;15333;50.010;20.020;2024-02-21T13:33:13;10.93;;;5.35;;
28007;SDS011;15333;50.010;20.020;2024-02-21T13:36:14;11.43;;;5.88;;
28007;SDS011;15333;50.010;20.020;2024-02-21T13:39:15;12.43;;;5.20;;
28007;SDS011;15333;50.010;20.020;2024-02-21T13:42:16;13.27;;;5.80;;
28007;SDS011;15333;50.010;20.020;2024-02-21T13:45:18;14.82;;;6.15;;
28007;SDS011;15333;50.010;20.020;2024-02-21T13:48:20;15.63;;;6.78;;
28007;SDS011;15333;50.010;20.020;2024-02-21T13:51:20;15.95;;;6.72;;
28007;SDS011;15333;50.010;20.020;2024-02-21T13:54:22;16.08;;;6.60;;
28007;SDS011;15333;50.010;20.020;2024-02-21T13:57:22;14.40;;;6.03;;
28007;SDS011;15333;50.010;20.020;2024-02-21T14:00:23;12.70;;;6.20;;
28007;SDS011;15333;50.010;20.020;2024-02-21T14:03:24;11.02;;;6.13;;
28007;SDS011;15333;50.010;20.020;2024-02-21T14:06:26;13.95;;;6.47;;
28007;SDS011;15333;50.010;20.020;2024-02-21T14:09:27;16.30;;;7.20;;
28007;SDS011;15333;50.010;20.020;2024-02-21T14:12:32;11.57;;;6.53;;
28007;SDS011;15333;50.010;20.020;2024-02-21T14:15:33;16.92;;;6.95;;
28007;SDS011;15333;50.010;20.020;2024-02-21T14:18:34;13.50;;;6.78;;
28007;SDS011;15333;50.010;20.020;2024-02-21T14:21:38;14.35;;;6.30;;
28007;SDS011;15333;50.010;20.020;2024-02-21T14:24:39;18.80;;;7.30;;
28007;SDS011;15333;50.010;20.020;2024-02-21T14:27:39;16.33;;;7.00;;
28007;SDS011;15333;50.010;20.020;2024-02-21T14:30:40;15.63;;;6.63;;
28007;SDS011;15333;50.010;20.020;2024-02-21T14:33:41;14.80;;;7.00;;
28007;SDS011;15333;50.010;20.020;2024-02-21T14:36:42;15.55;;;6.88;;
28007;SDS011;15333;50.010;20.020;2024-02-21T14:39:43;13.25;;;6.38;;
28007;SDS011;15333;50.010;20.020;2024-02-21T14:42:44;10.45;;;6.28;;
28007;SDS011;15333;50.010;20.020;2024-02-21T14:45:45;13.52;;;6.38;;
28007;SDS011;15333;50.010;20.020;2024-02-21T14:48:48;14.13;;;6.68;;
28007;SDS011;15333;50.010;20.020;2024-02-21T14:51:49;12.82;;;7.20;;
28007;SDS011;15333;50.010;20.020;2024-02-21T14:54:50;16.83;;;7.28;;
28007;SDS011;15333;50.010;20.020;2024-02-21T14:57:52;13.88;;;7.68;;
28007;SDS011;15333;50.010;20.020;2024-02-21T15:00:53;16.25;;;8.10;;
28007;SDS011;15333;50.010;20.020;2024-02-21T15:03:54;12.73;;;7.72;;
28007;SDS011;15333;50.010;20.020;2024-02-21T15:06:55;17.58;;;8.20;;
28007;SDS011;15333;50.010;20.020;2024-02-21T15:09:56;16.88;;;8.50;;
28007;SDS011;15333;50.010;20.020;2024-02-21T15:12:57;20.50;;;8.63;;
28007;SDS011;15333;50.010;20.020;2024-02-21T15:15:58;16.48;;;8.27;;
28007;SDS011;15333;50.010;20.020;2024-02-21T15:18:59;16.08;;;8.07;;
28007;SDS011;15333;50.010;20.020;2024-02-21T15:22:00;18.05;;;8.98;;
28007;SDS011;15333;50.010;20.020;2024-02-21T15:25:01;17.48;;;8.00;;
28007;SDS011;15333;50.010;20.020;2024-02-21T15:28:05;19.30;;;8.82;;
28007;SDS011;15333;50.010;20.020;2024-02-21T15:31:06;17.75;;;7.63;;
28007;SDS011;15333;50.010;20.020;2024-02-21T15:34:07;13.40;;;7.38;;
28007;SDS011;15333;50.010;20.020;2024-02-21T15:37:08;15.05;;;6.85;;
28007;SDS011;15333;50.010;20.020;2024-02-21T15:40:11;15.60;;;7.28;;
28007;SDS011;15333;50.010;20.020;2024-02-21T15:43:12;14.25;;;7.43;;
28007;SDS011;15333;50.010;20.020;2024-02-21T15:46:13;13.80;;;7.57;;
28007;SDS011;15333;50.010;20.020;2024-02-21T15:49:14;17.13;;;7.40;;
28007;SDS011;15333;50.010;20.020;2024-02-21T15:52:15;12.10;;;7.45;;
28007;SDS011;15333;50.010;20.020;2024-02-21T15:55:16;14.77;;;6.70;;
28007;SDS011;15333;50.010;20.020;2024-02-21T15:58:17;16.83;;;7.03;;
28007;SDS011;15333;50.010;20.020;2024-02-21T16:01:21;11.93;;;6.78;;
28007;SDS011;15333;50.010;20.020;2024-02-21T16:04:23;12.73;;;6.43;;
28007;SDS011;15333;50.010;20.020;2024-02-21T16:07:25;10.82;;;6.18;;
28007;SDS011;15333;50.010;20.020;2024-02-21T16:10:26;15.70;;;6.22;;
28007;SDS011;15333;50.010;20.020;2024-02-21T16:13:27;14.63;;;6.85;;
28007;SDS011;15333;50.010;20.020;2024-02-21T16:16:27;12.70;;;6.10;;
28007;SDS011;15333;50.010;20.020;2024-02-21T16:19:28;11.00;;;6.05;;
28007;SDS011;15333;50.010;20.020;2024-02-21T16:22:29;10.85;;;6.25;;
28007;SDS011;15333;50.010;20.020;2024-02-21T16:25:31;13.45;;;6.32;;
28007;SDS011;15333;50.010;20.020;2024-02-21T16:28:32;13.23;;;6.47;;
28007;SDS011;15333;50.010;20.020;2024-02-21T16:31:34;14.00;;;6.60;;
28007;SDS011;15333;50.010;20.020;2024-02-21T16:34:37;10.90;;;6.05;;
28007;SDS011;15333;50.010;20.020;2024-02-21T16:37:38;14.52;;;5.85;;
28007;SDS011;15333;50.010;20.020;2024-02-21T16:40:39;14.02;;;6.65;;
28007;SDS011;15333;50.010;20.020;2024-02-21T16:43:41;14.32;;;6.47;;
28007;SDS011;15333;50.010;20.020;2024-02-21T16:46:42;15.52;;;6.90;;
28007;SDS011;15333;50.010;20.020;2024-02-21T16:49:43;13.70;;;7.05;;
28007;SDS011;15333;50.010;20.020;2024-02-21T16:52:43;13.90;;;7.15;;
28007;SDS011;15333;50.010;20.020;2024-02-21T16:55:44;16.27;;;8.13;;
28007;SDS011;15333;50.010;20.020;2024-02-21T16:58:45;16.27;;;7.97;;
28007;SDS011;15333;50.010;20.020;2024-02-21T17:01:46;15.00;;;7.60;;
28007;SDS011;15333;50.010;20.020;2024-02-21T17:04:51;15.13;;;8.40;;
28007;SDS011;15333;50.010;20.020;2024-02-21T17:07:54;17.13;;;9.00;;
28007;SDS011;15333;50.010;20.020;2024-02-21T17:10:55;16.25;;;8.00;;
28007;SDS011;15333;50.010;20.020;2024-02-21T17:13:57;15.82;;;7.80;;
28007;SDS011;15333;50.010;20.020;2024-02-21T17:16:57;16.90;;;8.55;;
28007;SDS011;15333;50.010;20.020;2024-02-21T17:19:58;16.67;;;9.20;;
28007;SDS011;15333;50.010;20.020;2024-02-21T17:22:59;17.35;;;9.63;;
28007;SDS011;15333;50.010;20.020;2024-02-21T17:26:00;16.67;;;8.70;;
28007;SDS011;15333;50.010;20.020;2024-02-21T17:29:01;18.63;;;9.48;;
28007;SDS011;15333;50.010;20.020;2024-02-21T17:32:02;15.35;;;9.10;;
28007;SDS011;15333;50.010;20.020;2024-02-21T17:35:03;16.58;;;9.07;;
28007;SDS011;15333;50.010;20.020;2024-02-21T17:38:05;17.90;;;10.55;;
28007;SDS011;15333;50.010;20.020;2024-02-21T17:41:06;16.52;;;9.43;;
28007;SDS011;15333;50.010;20.020;2024-02-21T17:44:07;20.65;;;9.88;;
28007;SDS011;15333;50.010;20.020;2024-02-21T17:47:08;14.55;;;8.23;;